sensor_id;sensor_type;location;lat;lon;timestamp;temperature;humidity
736;DHT22;352;48.626;9.238;2022-10-31T00:01:14;13.00;99.90
736;DHT22;352;48.626;9.238;2022-10-31T00:03:43;13.00;99.90
736;DHT22;352;48.626;9.238;2022-10-31T00:06:10;13.00;99.90
736;DHT22;352;48.626;9.238;2022-10-31T00:08:37;12.90;99.90
736;DHT22;352;48.626;9.238;2022-10-31T00:11:07;12.90;99.90
736;DHT22;352;48.626;9.238;2022-10-31T00:13:34;12.90;99.90
736;DHT22;352;48.626;9.238;2022-10-31T00:16:01;12.90;99.90
736;DHT22;352;48.626;9.238;2022-10-31T00:18:28;12.90;99.90
736;DHT22;352;48.626;9.238;2022-10-31T00:21:00;12.90;99.90
736;DHT22;352;48.626;9.238;2022-10-31T00:23:26;12.80;99.90
736;DHT22;352;48.626;9.238;2022-10-31T00:25:53;12.80;99.90
736;DHT22;352;48.626;9.238;2022-10-31T00:28:20;12.80;99.90
736;DHT22;352;48.626;9.238;2022-10-31T00:30:47;12.80;99.90
736;DHT22;352;48.626;9.238;2022-10-31T00:33:14;12.80;99.90
736;DHT22;352;48.626;9.238;2022-10-31T00:35:40;12.80;99.90
736;DHT22;352;48.626;9.238;2022-10-31T00:38:08;12.70;99.90
736;DHT22;352;48.626;9.238;2022-10-31T00:40:35;12.60;99.90
736;DHT22;352;48.626;9.238;2022-10-31T00:43:02;12.60;99.90
736;DHT22;352;48.626;9.238;2022-10-31T00:45:28;12.60;99.90
736;DHT22;352;48.626;9.238;2022-10-31T00:47:55;12.60;99.90
736;DHT22;352;48.626;9.238;2022-10-31T00:50:22;12.50;99.90
736;DHT22;352;48.626;9.238;2022-10-31T00:52:49;12.50;99.90
736;DHT22;352;48.626;9.238;2022-10-31T00:55:17;12.50;99.90
736;DHT22;352;48.626;9.238;2022-10-31T00:57:46;12.50;99.90
736;DHT22;352;48.626;9.238;2022-10-31T01:00:13;12.40;99.90
736;DHT22;352;48.626;9.238;2022-10-31T01:02:40;12.40;99.90
736;DHT22;352;48.626;9.238;2022-10-31T01:05:07;12.30;99.90
736;DHT22;352;48.626;9.238;2022-10-31T01:07:35;12.30;99.90
736;DHT22;352;48.626;9.238;2022-10-31T01:10:02;12.30;99.90
736;DHT22;352;48.626;9.238;2022-10-31T01:12:35;12.30;99.90
736;DHT22;352;48.626;9.238;2022-10-31T01:15:03;12.30;99.90
736;DHT22;352;48.626;9.238;2022-10-31T01:17:30;12.30;99.90
736;DHT22;352;48.626;9.238;2022-10-31T01:19:57;12.30;99.90
736;DHT22;352;48.626;9.238;2022-10-31T01:22:24;12.20;99.90
736;DHT22;352;48.626;9.238;2022-10-31T01:24:51;12.20;99.90
736;DHT22;352;48.626;9.238;2022-10-31T01:27:17;12.20;99.90
736;DHT22;352;48.626;9.238;2022-10-31T01:29:45;12.20;99.90
736;DHT22;352;48.626;9.238;2022-10-31T01:32:12;12.20;99.90
736;DHT22;352;48.626;9.238;2022-10-31T01:34:39;12.20;99.90
736;DHT22;352;48.626;9.238;2022-10-31T01:37:06;12.20;99.90
736;DHT22;352;48.626;9.238;2022-10-31T01:39:32;12.20;99.90
736;DHT22;352;48.626;9.238;2022-10-31T01:41:59;12.20;99.90
736;DHT22;352;48.626;9.238;2022-10-31T01:45:01;12.10;99.90
736;DHT22;352;48.626;9.238;2022-10-31T01:47:41;12.20;99.90
736;DHT22;352;48.626;9.238;2022-10-31T01:50:14;12.10;99.90
736;DHT22;352;48.626;9.238;2022-10-31T01:52:44;12.10;99.90
736;DHT22;352;48.626;9.238;2022-10-31T01:55:14;12.10;99.90
736;DHT22;352;48.626;9.238;2022-10-31T01:57:44;12.00;99.90
736;DHT22;352;48.626;9.238;2022-10-31T02:00:14;12.00;99.90
736;DHT22;352;48.626;9.238;2022-10-31T02:02:41;12.00;99.90
736;DHT22;352;48.626;9.238;2022-10-31T02:05:12;11.90;99.90
736;DHT22;352;48.626;9.238;2022-10-31T02:07:42;11.90;99.90
736;DHT22;352;48.626;9.238;2022-10-31T02:10:10;11.90;99.90
736;DHT22;352;48.626;9.238;2022-10-31T02:12:37;11.80;99.90
736;DHT22;352;48.626;9.238;2022-10-31T02:15:06;11.90;99.90
736;DHT22;352;48.626;9.238;2022-10-31T02:17:34;11.80;99.90
736;DHT22;352;48.626;9.238;2022-10-31T02:20:12;11.80;99.90
736;DHT22;352;48.626;9.238;2022-10-31T02:22:48;11.80;99.90
736;DHT22;352;48.626;9.238;2022-10-31T02:25:32;11.80;99.90
736;DHT22;352;48.626;9.238;2022-10-31T02:28:25;11.70;99.90
736;DHT22;352;48.626;9.238;2022-10-31T02:31:01;11.70;99.90
736;DHT22;352;48.626;9.238;2022-10-31T02:33:38;11.70;99.90
736;DHT22;352;48.626;9.238;2022-10-31T02:36:13;11.70;99.90
736;DHT22;352;48.626;9.238;2022-10-31T02:38:49;11.70;99.90
736;DHT22;352;48.626;9.238;2022-10-31T02:41:22;11.60;99.90
736;DHT22;352;48.626;9.238;2022-10-31T02:44:00;11.70;99.90
736;DHT22;352;48.626;9.238;2022-10-31T02:46:35;11.60;99.90
736;DHT22;352;48.626;9.238;2022-10-31T02:49:08;11.50;99.90
736;DHT22;352;48.626;9.238;2022-10-31T02:51:39;11.50;99.90
736;DHT22;352;48.626;9.238;2022-10-31T02:54:17;11.40;99.90
736;DHT22;352;48.626;9.238;2022-10-31T02:56:44;11.40;99.90
736;DHT22;352;48.626;9.238;2022-10-31T02:59:10;11.30;99.90
736;DHT22;352;48.626;9.238;2022-10-31T03:01:47;11.30;99.90
736;DHT22;352;48.626;9.238;2022-10-31T03:04:35;11.20;99.90
736;DHT22;352;48.626;9.238;2022-10-31T03:07:14;11.20;99.90
736;DHT22;352;48.626;9.238;2022-10-31T03:09:49;11.10;99.90
736;DHT22;352;48.626;9.238;2022-10-31T03:12:25;11.10;99.90
736;DHT22;352;48.626;9.238;2022-10-31T03:14:59;11.10;99.90
736;DHT22;352;48.626;9.238;2022-10-31T03:17:34;11.10;99.90
736;DHT22;352;48.626;9.238;2022-10-31T03:20:04;11.10;99.90
736;DHT22;352;48.626;9.238;2022-10-31T03:22:33;11.10;99.90
736;DHT22;352;48.626;9.238;2022-10-31T03:25:04;11.10;99.90
736;DHT22;352;48.626;9.238;2022-10-31T03:27:33;11.10;99.90
736;DHT22;352;48.626;9.238;2022-10-31T03:30:05;11.10;99.90
736;DHT22;352;48.626;9.238;2022-10-31T03:32:38;11.10;99.90
736;DHT22;352;48.626;9.238;2022-10-31T03:35:08;11.10;99.90
736;DHT22;352;48.626;9.238;2022-10-31T03:37:37;11.10;99.90
736;DHT22;352;48.626;9.238;2022-10-31T03:40:07;11.00;99.90
736;DHT22;352;48.626;9.238;2022-10-31T03:42:38;11.00;99.90
736;DHT22;352;48.626;9.238;2022-10-31T03:45:09;11.00;99.90
736;DHT22;352;48.626;9.238;2022-10-31T03:47:39;11.00;99.90
736;DHT22;352;48.626;9.238;2022-10-31T03:50:08;11.00;99.90
736;DHT22;352;48.626;9.238;2022-10-31T03:52:39;11.00;99.90
736;DHT22;352;48.626;9.238;2022-10-31T03:55:10;11.00;99.90
736;DHT22;352;48.626;9.238;2022-10-31T03:57:43;10.90;99.90
736;DHT22;352;48.626;9.238;2022-10-31T04:00:13;10.90;99.90
736;DHT22;352;48.626;9.238;2022-10-31T04:02:45;10.90;99.90
736;DHT22;352;48.626;9.238;2022-10-31T04:05:15;10.90;99.90
736;DHT22;352;48.626;9.238;2022-10-31T04:07:46;10.90;99.90
736;DHT22;352;48.626;9.238;2022-10-31T04:10:15;10.90;99.90
736;DHT22;352;48.626;9.238;2022-10-31T04:12:43;10.90;99.90
736;DHT22;352;48.626;9.238;2022-10-31T04:15:13;10.90;99.90
736;DHT22;352;48.626;9.238;2022-10-31T04:17:43;10.90;99.90
736;DHT22;352;48.626;9.238;2022-10-31T04:20:15;10.90;99.90
736;DHT22;352;48.626;9.238;2022-10-31T04:22:42;10.80;99.90
736;DHT22;352;48.626;9.238;2022-10-31T04:25:09;10.80;99.90
736;DHT22;352;48.626;9.238;2022-10-31T04:27:35;10.80;99.90
736;DHT22;352;48.626;9.238;2022-10-31T04:30:02;10.80;99.90
736;DHT22;352;48.626;9.238;2022-10-31T04:32:29;10.80;99.90
736;DHT22;352;48.626;9.238;2022-10-31T04:34:57;10.80;99.90
736;DHT22;352;48.626;9.238;2022-10-31T04:37:24;10.80;99.90
736;DHT22;352;48.626;9.238;2022-10-31T04:39:51;10.70;99.90
736;DHT22;352;48.626;9.238;2022-10-31T04:42:17;10.70;99.90
736;DHT22;352;48.626;9.238;2022-10-31T04:44:44;10.70;99.90
736;DHT22;352;48.626;9.238;2022-10-31T04:47:11;10.70;99.90
736;DHT22;352;48.626;9.238;2022-10-31T04:49:37;10.70;99.90
736;DHT22;352;48.626;9.238;2022-10-31T04:52:06;10.60;99.90
736;DHT22;352;48.626;9.238;2022-10-31T04:54:33;10.60;99.90
736;DHT22;352;48.626;9.238;2022-10-31T04:57:00;10.60;99.90
736;DHT22;352;48.626;9.238;2022-10-31T04:59:27;10.60;99.90
736;DHT22;352;48.626;9.238;2022-10-31T05:01:53;10.40;99.90
736;DHT22;352;48.626;9.238;2022-10-31T05:04:20;10.30;99.90
736;DHT22;352;48.626;9.238;2022-10-31T05:06:47;10.30;99.90
736;DHT22;352;48.626;9.238;2022-10-31T05:09:15;10.30;99.90
736;DHT22;352;48.626;9.238;2022-10-31T05:11:42;10.30;99.90
736;DHT22;352;48.626;9.238;2022-10-31T05:14:08;10.30;99.90
736;DHT22;352;48.626;9.238;2022-10-31T05:16:35;10.30;99.90
736;DHT22;352;48.626;9.238;2022-10-31T05:19:02;10.30;99.90
736;DHT22;352;48.626;9.238;2022-10-31T05:21:29;10.10;99.90
736;DHT22;352;48.626;9.238;2022-10-31T05:23:55;10.10;99.90
736;DHT22;352;48.626;9.238;2022-10-31T05:26:23;10.00;99.90
736;DHT22;352;48.626;9.238;2022-10-31T05:28:50;10.00;99.90
736;DHT22;352;48.626;9.238;2022-10-31T05:31:17;10.00;99.90
736;DHT22;352;48.626;9.238;2022-10-31T05:33:44;10.00;99.90
736;DHT22;352;48.626;9.238;2022-10-31T05:36:10;10.00;99.90
736;DHT22;352;48.626;9.238;2022-10-31T05:38:37;10.00;99.90
736;DHT22;352;48.626;9.238;2022-10-31T05:41:04;10.00;99.90
736;DHT22;352;48.626;9.238;2022-10-31T05:43:32;10.00;99.90
736;DHT22;352;48.626;9.238;2022-10-31T05:45:59;10.00;99.90
736;DHT22;352;48.626;9.238;2022-10-31T05:48:25;10.00;99.90
736;DHT22;352;48.626;9.238;2022-10-31T05:50:52;10.00;99.90
736;DHT22;352;48.626;9.238;2022-10-31T05:53:19;10.00;99.90
736;DHT22;352;48.626;9.238;2022-10-31T05:55:47;10.00;99.90
736;DHT22;352;48.626;9.238;2022-10-31T05:58:13;10.00;99.90
736;DHT22;352;48.626;9.238;2022-10-31T06:00:41;10.00;99.90
736;DHT22;352;48.626;9.238;2022-10-31T06:03:09;10.00;99.90
736;DHT22;352;48.626;9.238;2022-10-31T06:05:36;10.00;99.90
736;DHT22;352;48.626;9.238;2022-10-31T06:08:02;10.00;99.90
736;DHT22;352;48.626;9.238;2022-10-31T06:10:29;10.00;99.90
736;DHT22;352;48.626;9.238;2022-10-31T06:12:56;10.00;99.90
736;DHT22;352;48.626;9.238;2022-10-31T06:15:23;10.00;99.90
736;DHT22;352;48.626;9.238;2022-10-31T06:17:59;10.00;99.90
736;DHT22;352;48.626;9.238;2022-10-31T06:20:26;10.10;99.90
736;DHT22;352;48.626;9.238;2022-10-31T06:22:53;10.10;99.90
736;DHT22;352;48.626;9.238;2022-10-31T06:25:20;10.10;99.90
736;DHT22;352;48.626;9.238;2022-10-31T06:27:47;10.10;99.90
736;DHT22;352;48.626;9.238;2022-10-31T06:30:14;10.20;99.90
736;DHT22;352;48.626;9.238;2022-10-31T06:32:40;10.20;99.90
736;DHT22;352;48.626;9.238;2022-10-31T06:35:09;10.30;99.90
736;DHT22;352;48.626;9.238;2022-10-31T06:37:37;10.20;99.90
736;DHT22;352;48.626;9.238;2022-10-31T06:40:04;10.30;99.90
736;DHT22;352;48.626;9.238;2022-10-31T06:42:31;10.30;99.90
736;DHT22;352;48.626;9.238;2022-10-31T06:44:58;10.40;99.90
736;DHT22;352;48.626;9.238;2022-10-31T06:47:25;10.50;99.90
736;DHT22;352;48.626;9.238;2022-10-31T06:49:51;10.50;99.90
736;DHT22;352;48.626;9.238;2022-10-31T06:52:19;10.60;99.90
736;DHT22;352;48.626;9.238;2022-10-31T06:54:48;10.60;99.90
736;DHT22;352;48.626;9.238;2022-10-31T06:57:15;10.50;99.90
736;DHT22;352;48.626;9.238;2022-10-31T06:59:42;10.50;99.90
736;DHT22;352;48.626;9.238;2022-10-31T07:02:09;10.40;99.90
736;DHT22;352;48.626;9.238;2022-10-31T07:04:36;10.50;99.90
736;DHT22;352;48.626;9.238;2022-10-31T07:07:03;10.60;99.90
736;DHT22;352;48.626;9.238;2022-10-31T07:09:31;10.60;99.90
736;DHT22;352;48.626;9.238;2022-10-31T07:11:58;10.70;99.90
736;DHT22;352;48.626;9.238;2022-10-31T07:14:24;10.60;99.90
736;DHT22;352;48.626;9.238;2022-10-31T07:16:51;10.60;99.90
736;DHT22;352;48.626;9.238;2022-10-31T07:19:18;10.60;99.90
736;DHT22;352;48.626;9.238;2022-10-31T07:21:45;10.70;99.90
736;DHT22;352;48.626;9.238;2022-10-31T07:24:11;10.90;99.90
736;DHT22;352;48.626;9.238;2022-10-31T07:26:39;11.10;99.90
736;DHT22;352;48.626;9.238;2022-10-31T07:29:07;11.20;99.90
736;DHT22;352;48.626;9.238;2022-10-31T07:31:34;11.40;99.90
736;DHT22;352;48.626;9.238;2022-10-31T07:34:01;11.40;99.90
736;DHT22;352;48.626;9.238;2022-10-31T07:36:28;11.50;99.90
736;DHT22;352;48.626;9.238;2022-10-31T07:38:54;11.70;99.90
736;DHT22;352;48.626;9.238;2022-10-31T07:41:21;11.70;99.90
736;DHT22;352;48.626;9.238;2022-10-31T07:43:49;11.80;99.90
736;DHT22;352;48.626;9.238;2022-10-31T07:46:16;11.80;99.90
736;DHT22;352;48.626;9.238;2022-10-31T07:48:43;11.70;99.90
736;DHT22;352;48.626;9.238;2022-10-31T07:51:09;11.70;99.90
736;DHT22;352;48.626;9.238;2022-10-31T07:53:36;11.80;99.90
736;DHT22;352;48.626;9.238;2022-10-31T07:56:03;11.80;99.90
736;DHT22;352;48.626;9.238;2022-10-31T07:58:30;12.00;99.90
736;DHT22;352;48.626;9.238;2022-10-31T08:00:58;12.20;99.90
736;DHT22;352;48.626;9.238;2022-10-31T08:03:25;12.20;99.90
736;DHT22;352;48.626;9.238;2022-10-31T08:05:51;12.20;99.90
736;DHT22;352;48.626;9.238;2022-10-31T08:08:18;12.40;99.90
736;DHT22;352;48.626;9.238;2022-10-31T08:10:45;12.50;99.90
736;DHT22;352;48.626;9.238;2022-10-31T08:13:13;12.70;99.90
736;DHT22;352;48.626;9.238;2022-10-31T08:15:40;12.80;99.90
736;DHT22;352;48.626;9.238;2022-10-31T08:18:13;12.90;99.90
736;DHT22;352;48.626;9.238;2022-10-31T08:20:40;12.90;99.90
736;DHT22;352;48.626;9.238;2022-10-31T08:23:08;13.00;99.90
736;DHT22;352;48.626;9.238;2022-10-31T08:25:35;13.20;99.90
736;DHT22;352;48.626;9.238;2022-10-31T08:28:02;13.30;99.90
736;DHT22;352;48.626;9.238;2022-10-31T08:30:32;13.30;99.90
736;DHT22;352;48.626;9.238;2022-10-31T08:33:00;13.30;99.90
736;DHT22;352;48.626;9.238;2022-10-31T08:35:29;13.60;99.90
736;DHT22;352;48.626;9.238;2022-10-31T08:37:56;13.80;99.90
736;DHT22;352;48.626;9.238;2022-10-31T08:40:23;13.90;99.90
736;DHT22;352;48.626;9.238;2022-10-31T08:42:58;14.10;99.90
736;DHT22;352;48.626;9.238;2022-10-31T08:45:25;14.20;99.90
736;DHT22;352;48.626;9.238;2022-10-31T08:47:56;14.40;99.90
736;DHT22;352;48.626;9.238;2022-10-31T08:50:22;14.40;99.90
736;DHT22;352;48.626;9.238;2022-10-31T08:52:51;14.50;99.90
736;DHT22;352;48.626;9.238;2022-10-31T08:55:17;14.60;99.90
736;DHT22;352;48.626;9.238;2022-10-31T08:57:44;14.60;99.90
736;DHT22;352;48.626;9.238;2022-10-31T09:00:11;14.70;99.90
736;DHT22;352;48.626;9.238;2022-10-31T09:02:38;14.50;99.90
736;DHT22;352;48.626;9.238;2022-10-31T09:05:05;14.60;99.90
736;DHT22;352;48.626;9.238;2022-10-31T09:07:32;14.70;99.90
736;DHT22;352;48.626;9.238;2022-10-31T09:10:00;14.90;99.90
736;DHT22;352;48.626;9.238;2022-10-31T09:12:27;15.10;99.90
736;DHT22;352;48.626;9.238;2022-10-31T09:14:53;15.00;99.90
736;DHT22;352;48.626;9.238;2022-10-31T09:17:20;15.10;99.90
736;DHT22;352;48.626;9.238;2022-10-31T09:19:47;15.20;99.90
736;DHT22;352;48.626;9.238;2022-10-31T09:22:14;15.20;99.90
736;DHT22;352;48.626;9.238;2022-10-31T09:24:41;15.20;99.90
736;DHT22;352;48.626;9.238;2022-10-31T09:27:09;15.30;99.90
736;DHT22;352;48.626;9.238;2022-10-31T09:29:35;15.40;99.90
736;DHT22;352;48.626;9.238;2022-10-31T09:32:02;15.50;99.90
736;DHT22;352;48.626;9.238;2022-10-31T09:34:29;15.60;99.90
736;DHT22;352;48.626;9.238;2022-10-31T09:36:56;15.80;99.90
736;DHT22;352;48.626;9.238;2022-10-31T09:39:22;15.90;99.90
736;DHT22;352;48.626;9.238;2022-10-31T09:45:00;16.10;99.90
736;DHT22;352;48.626;9.238;2022-10-31T09:47:39;16.30;99.90
736;DHT22;352;48.626;9.238;2022-10-31T09:50:14;16.50;99.90
736;DHT22;352;48.626;9.238;2022-10-31T09:52:51;16.50;99.90
736;DHT22;352;48.626;9.238;2022-10-31T09:55:23;16.70;99.90
736;DHT22;352;48.626;9.238;2022-10-31T09:57:52;16.80;99.90
736;DHT22;352;48.626;9.238;2022-10-31T10:00:22;16.70;99.90
736;DHT22;352;48.626;9.238;2022-10-31T10:02:52;17.00;99.90
736;DHT22;352;48.626;9.238;2022-10-31T10:05:26;17.20;99.90
736;DHT22;352;48.626;9.238;2022-10-31T10:08:03;17.30;99.90
736;DHT22;352;48.626;9.238;2022-10-31T10:10:45;17.30;99.90
736;DHT22;352;48.626;9.238;2022-10-31T10:13:28;17.30;99.90
736;DHT22;352;48.626;9.238;2022-10-31T10:16:21;17.10;99.90
736;DHT22;352;48.626;9.238;2022-10-31T10:19:02;17.20;99.90
736;DHT22;352;48.626;9.238;2022-10-31T10:21:39;17.20;99.90
736;DHT22;352;48.626;9.238;2022-10-31T10:24:23;17.30;99.90
736;DHT22;352;48.626;9.238;2022-10-31T10:27:01;17.40;99.90
736;DHT22;352;48.626;9.238;2022-10-31T10:29:37;17.50;99.90
736;DHT22;352;48.626;9.238;2022-10-31T10:32:12;17.60;99.90
736;DHT22;352;48.626;9.238;2022-10-31T10:34:45;17.70;99.90
736;DHT22;352;48.626;9.238;2022-10-31T10:37:25;17.60;99.90
736;DHT22;352;48.626;9.238;2022-10-31T10:39:59;17.60;99.90
736;DHT22;352;48.626;9.238;2022-10-31T10:42:27;17.60;99.90
736;DHT22;352;48.626;9.238;2022-10-31T10:45:17;17.60;99.90
736;DHT22;352;48.626;9.238;2022-10-31T10:48:11;17.60;99.90
736;DHT22;352;48.626;9.238;2022-10-31T10:50:44;17.60;99.90
736;DHT22;352;48.626;9.238;2022-10-31T10:53:24;17.60;99.90
736;DHT22;352;48.626;9.238;2022-10-31T10:56:00;17.40;99.90
736;DHT22;352;48.626;9.238;2022-10-31T10:58:29;17.40;99.90
736;DHT22;352;48.626;9.238;2022-10-31T11:00:56;17.30;99.90
736;DHT22;352;48.626;9.238;2022-10-31T11:03:24;17.40;99.90
736;DHT22;352;48.626;9.238;2022-10-31T11:05:53;17.50;99.90
736;DHT22;352;48.626;9.238;2022-10-31T11:08:25;17.70;99.90
736;DHT22;352;48.626;9.238;2022-10-31T11:11:03;17.70;99.90
736;DHT22;352;48.626;9.238;2022-10-31T11:13:30;17.80;99.90
736;DHT22;352;48.626;9.238;2022-10-31T11:16:00;17.90;99.90
736;DHT22;352;48.626;9.238;2022-10-31T11:18:30;18.00;99.90
736;DHT22;352;48.626;9.238;2022-10-31T11:20:59;18.10;99.90
736;DHT22;352;48.626;9.238;2022-10-31T11:23:27;18.10;99.90
736;DHT22;352;48.626;9.238;2022-10-31T11:25:56;18.20;99.90
736;DHT22;352;48.626;9.238;2022-10-31T11:28:24;18.20;99.90
736;DHT22;352;48.626;9.238;2022-10-31T11:30:52;18.20;99.90
736;DHT22;352;48.626;9.238;2022-10-31T11:33:25;18.20;99.90
736;DHT22;352;48.626;9.238;2022-10-31T11:35:55;18.30;99.90
736;DHT22;352;48.626;9.238;2022-10-31T11:38:24;18.30;99.90
736;DHT22;352;48.626;9.238;2022-10-31T11:40:58;18.30;99.90
736;DHT22;352;48.626;9.238;2022-10-31T11:43:26;18.30;99.90
736;DHT22;352;48.626;9.238;2022-10-31T11:45:53;18.50;99.90
736;DHT22;352;48.626;9.238;2022-10-31T11:48:21;18.50;99.90
736;DHT22;352;48.626;9.238;2022-10-31T11:50:51;18.50;99.90
736;DHT22;352;48.626;9.238;2022-10-31T11:53:27;18.50;99.90
736;DHT22;352;48.626;9.238;2022-10-31T11:56:09;18.70;99.90
736;DHT22;352;48.626;9.238;2022-10-31T11:58:36;18.70;99.90
736;DHT22;352;48.626;9.238;2022-10-31T12:01:03;18.70;99.90
736;DHT22;352;48.626;9.238;2022-10-31T12:03:38;18.80;99.90
736;DHT22;352;48.626;9.238;2022-10-31T12:06:11;18.80;99.90
736;DHT22;352;48.626;9.238;2022-10-31T12:08:41;18.80;99.90
736;DHT22;352;48.626;9.238;2022-10-31T12:11:16;18.90;99.90
736;DHT22;352;48.626;9.238;2022-10-31T12:13:53;19.00;99.90
736;DHT22;352;48.626;9.238;2022-10-31T12:16:29;18.90;99.90
736;DHT22;352;48.626;9.238;2022-10-31T12:19:02;19.00;99.90
736;DHT22;352;48.626;9.238;2022-10-31T12:21:50;18.90;99.90
736;DHT22;352;48.626;9.238;2022-10-31T12:27:20;18.90;99.90
736;DHT22;352;48.626;9.238;2022-10-31T12:30:08;18.90;99.90
736;DHT22;352;48.626;9.238;2022-10-31T12:32:47;18.80;99.90
736;DHT22;352;48.626;9.238;2022-10-31T12:35:29;18.80;99.90
736;DHT22;352;48.626;9.238;2022-10-31T12:38:19;18.80;99.90
736;DHT22;352;48.626;9.238;2022-10-31T12:41:06;18.80;99.90
736;DHT22;352;48.626;9.238;2022-10-31T12:43:42;18.80;99.90
736;DHT22;352;48.626;9.238;2022-10-31T12:46:16;18.80;99.90
736;DHT22;352;48.626;9.238;2022-10-31T12:49:06;18.80;99.90
736;DHT22;352;48.626;9.238;2022-10-31T12:51:41;18.70;99.90
736;DHT22;352;48.626;9.238;2022-10-31T12:54:21;18.70;99.90
736;DHT22;352;48.626;9.238;2022-10-31T12:56:56;18.70;99.90
736;DHT22;352;48.626;9.238;2022-10-31T12:59:30;18.70;99.90
736;DHT22;352;48.626;9.238;2022-10-31T13:02:02;18.60;99.90
736;DHT22;352;48.626;9.238;2022-10-31T13:04:39;18.60;99.90
736;DHT22;352;48.626;9.238;2022-10-31T13:07:11;18.70;99.90
736;DHT22;352;48.626;9.238;2022-10-31T13:09:46;18.60;99.90
736;DHT22;352;48.626;9.238;2022-10-31T13:12:18;18.50;99.90
736;DHT22;352;48.626;9.238;2022-10-31T13:14:49;18.60;99.90
736;DHT22;352;48.626;9.238;2022-10-31T13:17:22;18.60;99.90
736;DHT22;352;48.626;9.238;2022-10-31T13:19:51;18.60;99.90
736;DHT22;352;48.626;9.238;2022-10-31T13:22:22;18.60;99.90
736;DHT22;352;48.626;9.238;2022-10-31T13:24:54;18.60;99.90
736;DHT22;352;48.626;9.238;2022-10-31T13:27:26;18.60;99.90
736;DHT22;352;48.626;9.238;2022-10-31T13:30:00;18.50;99.90
736;DHT22;352;48.626;9.238;2022-10-31T13:32:36;18.50;99.90
736;DHT22;352;48.626;9.238;2022-10-31T13:35:08;18.60;99.90
736;DHT22;352;48.626;9.238;2022-10-31T13:37:43;18.60;99.90
736;DHT22;352;48.626;9.238;2022-10-31T13:40:18;18.60;99.90
736;DHT22;352;48.626;9.238;2022-10-31T13:42:54;18.70;99.90
736;DHT22;352;48.626;9.238;2022-10-31T13:45:23;18.80;99.90
736;DHT22;352;48.626;9.238;2022-10-31T13:47:58;18.80;99.90
736;DHT22;352;48.626;9.238;2022-10-31T13:50:27;18.80;99.90
736;DHT22;352;48.626;9.238;2022-10-31T13:53:11;18.90;99.90
736;DHT22;352;48.626;9.238;2022-10-31T13:55:40;19.00;99.90
736;DHT22;352;48.626;9.238;2022-10-31T13:58:25;19.00;99.90
736;DHT22;352;48.626;9.238;2022-10-31T14:03:43;19.00;99.90
736;DHT22;352;48.626;9.238;2022-10-31T14:06:11;19.10;99.90
736;DHT22;352;48.626;9.238;2022-10-31T14:08:40;19.00;99.90
736;DHT22;352;48.626;9.238;2022-10-31T14:11:09;19.00;99.90
736;DHT22;352;48.626;9.238;2022-10-31T14:13:45;18.90;99.90
736;DHT22;352;48.626;9.238;2022-10-31T14:16:18;19.00;99.90
736;DHT22;352;48.626;9.238;2022-10-31T14:18:48;19.00;99.90
736;DHT22;352;48.626;9.238;2022-10-31T14:21:27;19.10;99.90
736;DHT22;352;48.626;9.238;2022-10-31T14:23:55;19.10;99.90
736;DHT22;352;48.626;9.238;2022-10-31T14:26:34;19.20;99.90
736;DHT22;352;48.626;9.238;2022-10-31T14:29:23;19.10;99.90
736;DHT22;352;48.626;9.238;2022-10-31T14:31:57;19.10;99.90
736;DHT22;352;48.626;9.238;2022-10-31T14:34:28;19.10;99.90
736;DHT22;352;48.626;9.238;2022-10-31T14:37:27;19.00;99.90
736;DHT22;352;48.626;9.238;2022-10-31T14:40:10;19.00;99.90
736;DHT22;352;48.626;9.238;2022-10-31T14:42:55;18.90;99.90
736;DHT22;352;48.626;9.238;2022-10-31T14:45:31;18.70;99.90
736;DHT22;352;48.626;9.238;2022-10-31T14:48:10;18.70;99.90
736;DHT22;352;48.626;9.238;2022-10-31T14:50:45;18.60;99.90
736;DHT22;352;48.626;9.238;2022-10-31T14:53:17;18.50;99.90
736;DHT22;352;48.626;9.238;2022-10-31T14:55:47;18.50;99.90
736;DHT22;352;48.626;9.238;2022-10-31T14:58:18;18.40;99.90
736;DHT22;352;48.626;9.238;2022-10-31T15:00:48;18.30;99.90
736;DHT22;352;48.626;9.238;2022-10-31T15:03:16;18.20;99.90
736;DHT22;352;48.626;9.238;2022-10-31T15:05:48;18.20;99.90
736;DHT22;352;48.626;9.238;2022-10-31T15:08:27;18.20;99.90
736;DHT22;352;48.626;9.238;2022-10-31T15:10:55;18.20;99.90
736;DHT22;352;48.626;9.238;2022-10-31T15:13:22;18.10;99.90
736;DHT22;352;48.626;9.238;2022-10-31T15:15:52;18.10;99.90
736;DHT22;352;48.626;9.238;2022-10-31T15:18:24;18.00;99.90
736;DHT22;352;48.626;9.238;2022-10-31T15:20:52;18.00;99.90
736;DHT22;352;48.626;9.238;2022-10-31T15:23:23;17.90;99.90
736;DHT22;352;48.626;9.238;2022-10-31T15:25:50;17.90;99.90
736;DHT22;352;48.626;9.238;2022-10-31T15:28:25;17.80;99.90
736;DHT22;352;48.626;9.238;2022-10-31T15:30:55;17.80;99.90
736;DHT22;352;48.626;9.238;2022-10-31T15:33:24;17.70;99.90
736;DHT22;352;48.626;9.238;2022-10-31T15:35:55;17.60;99.90
736;DHT22;352;48.626;9.238;2022-10-31T15:38:22;17.60;99.90
736;DHT22;352;48.626;9.238;2022-10-31T15:40:55;17.50;99.90
736;DHT22;352;48.626;9.238;2022-10-31T15:43:22;17.40;99.90
736;DHT22;352;48.626;9.238;2022-10-31T15:45:49;17.30;99.90
736;DHT22;352;48.626;9.238;2022-10-31T15:48:21;17.20;99.90
736;DHT22;352;48.626;9.238;2022-10-31T15:50:51;17.10;99.90
736;DHT22;352;48.626;9.238;2022-10-31T15:53:21;17.10;99.90
736;DHT22;352;48.626;9.238;2022-10-31T15:55:52;17.00;99.90
736;DHT22;352;48.626;9.238;2022-10-31T15:58:19;17.00;99.90
736;DHT22;352;48.626;9.238;2022-10-31T16:00:57;16.90;99.90
736;DHT22;352;48.626;9.238;2022-10-31T16:03:27;16.80;99.90
736;DHT22;352;48.626;9.238;2022-10-31T16:05:56;16.70;99.90
736;DHT22;352;48.626;9.238;2022-10-31T16:08:33;16.70;99.90
736;DHT22;352;48.626;9.238;2022-10-31T16:11:13;16.60;99.90
736;DHT22;352;48.626;9.238;2022-10-31T16:13:53;16.50;99.90
736;DHT22;352;48.626;9.238;2022-10-31T16:16:20;16.50;99.90
736;DHT22;352;48.626;9.238;2022-10-31T16:18:49;16.40;99.90
736;DHT22;352;48.626;9.238;2022-10-31T16:21:24;16.40;99.90
736;DHT22;352;48.626;9.238;2022-10-31T16:23:55;16.40;99.90
736;DHT22;352;48.626;9.238;2022-10-31T16:26:23;16.30;99.90
736;DHT22;352;48.626;9.238;2022-10-31T16:28:51;16.30;99.90
736;DHT22;352;48.626;9.238;2022-10-31T16:31:30;16.30;99.90
736;DHT22;352;48.626;9.238;2022-10-31T16:34:09;16.20;99.90
736;DHT22;352;48.626;9.238;2022-10-31T16:36:37;16.10;99.90
736;DHT22;352;48.626;9.238;2022-10-31T16:39:05;16.00;99.90
736;DHT22;352;48.626;9.238;2022-10-31T16:41:35;16.00;99.90
736;DHT22;352;48.626;9.238;2022-10-31T16:44:05;15.90;99.90
736;DHT22;352;48.626;9.238;2022-10-31T16:46:32;15.80;99.90
736;DHT22;352;48.626;9.238;2022-10-31T16:48:59;15.80;99.90
736;DHT22;352;48.626;9.238;2022-10-31T16:51:27;15.70;99.90
736;DHT22;352;48.626;9.238;2022-10-31T16:53:54;15.70;99.90
736;DHT22;352;48.626;9.238;2022-10-31T16:56:26;15.60;99.90
736;DHT22;352;48.626;9.238;2022-10-31T16:58:54;15.50;99.90
736;DHT22;352;48.626;9.238;2022-10-31T17:01:21;15.50;99.90
736;DHT22;352;48.626;9.238;2022-10-31T17:03:48;15.50;99.90
736;DHT22;352;48.626;9.238;2022-10-31T17:06:15;15.40;99.90